< < Back
Terminal Aerodrome Forecast


Current Version              Previous Versions:   1  2  3  4  5  6  7  8  9  

Terminal Aerodrome Forecast

739
FTUS42 KTAE 122320
TAFTLH
TAF
KTLH 122320Z 1300/1324 26010KT P6SM SKC
     FM131500 36011G18KT P6SM SKC=

Latest METAR

981
SAUS80 KWBC 131000 RRA
MTRTLH
METAR KTLH 130953Z AUTO 32003KT 10SM CLR 09/04 A3021 RMK AO2 SLP229
T00890039


USA.gov is the U.S. government's official web portal to all federal, state and local government web resources and services.